sensor_id;sensor_type;location;lat;lon;timestamp;P1;durP1;ratioP1;P2;durP2;ratioP2
10491;SDS011;5293;51.464;-2.566;2023-08-12T00:00:20;10.43;;;2.93;;
10491;SDS011;5293;51.464;-2.566;2023-08-12T00:02:45;11.57;;;3.10;;
10491;SDS011;5293;51.464;-2.566;2023-08-12T00:05:11;13.37;;;4.30;;
10491;SDS011;5293;51.464;-2.566;2023-08-12T00:07:41;11.70;;;3.43;;
10491;SDS011;5293;51.464;-2.566;2023-08-12T00:10:07;14.07;;;3.10;;
10491;SDS011;5293;51.464;-2.566;2023-08-12T00:12:34;13.17;;;3.53;;
10491;SDS011;5293;51.464;-2.566;2023-08-12T00:15:01;9.50;;;3.80;;
10491;SDS011;5293;51.464;-2.566;2023-08-12T00:17:27;11.77;;;3.63;;
10491;SDS011;5293;51.464;-2.566;2023-08-12T00:19:53;11.20;;;3.20;;
10491;SDS011;5293;51.464;-2.566;2023-08-12T00:22:19;13.57;;;3.33;;
10491;SDS011;5293;51.464;-2.566;2023-08-12T00:24:44;10.77;;;3.67;;
10491;SDS011;5293;51.464;-2.566;2023-08-12T00:27:10;11.67;;;3.53;;
10491;SDS011;5293;51.464;-2.566;2023-08-12T00:29:36;13.20;;;3.90;;
10491;SDS011;5293;51.464;-2.566;2023-08-12T00:32:02;16.77;;;4.20;;
10491;SDS011;5293;51.464;-2.566;2023-08-12T00:34:28;14.33;;;3.87;;
10491;SDS011;5293;51.464;-2.566;2023-08-12T00:36:54;8.30;;;3.27;;
10491;SDS011;5293;51.464;-2.566;2023-08-12T00:39:19;18.83;;;3.33;;
10491;SDS011;5293;51.464;-2.566;2023-08-12T00:41:45;10.97;;;3.27;;
10491;SDS011;5293;51.464;-2.566;2023-08-12T00:44:11;9.57;;;3.37;;
10491;SDS011;5293;51.464;-2.566;2023-08-12T00:46:43;17.23;;;3.93;;
10491;SDS011;5293;51.464;-2.566;2023-08-12T00:49:09;15.20;;;3.70;;
10491;SDS011;5293;51.464;-2.566;2023-08-12T00:51:36;13.50;;;3.67;;
10491;SDS011;5293;51.464;-2.566;2023-08-12T00:54:04;11.07;;;3.60;;
10491;SDS011;5293;51.464;-2.566;2023-08-12T00:56:31;12.63;;;3.67;;
10491;SDS011;5293;51.464;-2.566;2023-08-12T00:58:57;15.40;;;3.90;;
10491;SDS011;5293;51.464;-2.566;2023-08-12T01:01:25;13.93;;;3.43;;
10491;SDS011;5293;51.464;-2.566;2023-08-12T01:03:51;11.53;;;3.73;;
10491;SDS011;5293;51.464;-2.566;2023-08-12T01:06:17;13.90;;;3.63;;
10491;SDS011;5293;51.464;-2.566;2023-08-12T01:08:43;17.27;;;4.53;;
10491;SDS011;5293;51.464;-2.566;2023-08-12T01:11:14;13.83;;;3.40;;
10491;SDS011;5293;51.464;-2.566;2023-08-12T01:16:42;12.47;;;3.73;;
10491;SDS011;5293;51.464;-2.566;2023-08-12T01:19:22;14.27;;;3.73;;
10491;SDS011;5293;51.464;-2.566;2023-08-12T01:21:53;12.03;;;3.27;;
10491;SDS011;5293;51.464;-2.566;2023-08-12T01:24:24;12.40;;;3.67;;
10491;SDS011;5293;51.464;-2.566;2023-08-12T01:26:50;16.67;;;4.70;;
10491;SDS011;5293;51.464;-2.566;2023-08-12T01:29:16;16.23;;;4.63;;
10491;SDS011;5293;51.464;-2.566;2023-08-12T01:31:45;12.40;;;3.73;;
10491;SDS011;5293;51.464;-2.566;2023-08-12T01:34:35;13.93;;;3.40;;
10491;SDS011;5293;51.464;-2.566;2023-08-12T01:37:23;13.73;;;3.33;;
10491;SDS011;5293;51.464;-2.566;2023-08-12T01:39:52;15.13;;;4.50;;
10491;SDS011;5293;51.464;-2.566;2023-08-12T01:42:19;12.47;;;3.53;;
10491;SDS011;5293;51.464;-2.566;2023-08-12T01:44:46;15.13;;;3.40;;
10491;SDS011;5293;51.464;-2.566;2023-08-12T01:47:13;14.40;;;3.73;;
10491;SDS011;5293;51.464;-2.566;2023-08-12T01:49:38;16.77;;;4.47;;
10491;SDS011;5293;51.464;-2.566;2023-08-12T01:52:04;10.07;;;4.40;;
10491;SDS011;5293;51.464;-2.566;2023-08-12T01:54:30;10.93;;;3.83;;
10491;SDS011;5293;51.464;-2.566;2023-08-12T01:57:03;10.80;;;3.40;;
10491;SDS011;5293;51.464;-2.566;2023-08-12T01:59:33;14.87;;;4.00;;
10491;SDS011;5293;51.464;-2.566;2023-08-12T02:01:59;12.13;;;3.70;;
10491;SDS011;5293;51.464;-2.566;2023-08-12T02:04:25;14.33;;;3.70;;
10491;SDS011;5293;51.464;-2.566;2023-08-12T02:06:52;15.10;;;3.10;;
10491;SDS011;5293;51.464;-2.566;2023-08-12T02:09:18;11.80;;;3.87;;
10491;SDS011;5293;51.464;-2.566;2023-08-12T02:11:43;10.03;;;3.73;;
10491;SDS011;5293;51.464;-2.566;2023-08-12T02:14:09;13.23;;;3.93;;
10491;SDS011;5293;51.464;-2.566;2023-08-12T02:16:35;12.50;;;3.43;;
10491;SDS011;5293;51.464;-2.566;2023-08-12T02:19:00;14.50;;;3.50;;
10491;SDS011;5293;51.464;-2.566;2023-08-12T02:21:26;14.83;;;3.47;;
10491;SDS011;5293;51.464;-2.566;2023-08-12T02:23:52;11.63;;;4.47;;
10491;SDS011;5293;51.464;-2.566;2023-08-12T02:26:17;9.80;;;3.50;;
10491;SDS011;5293;51.464;-2.566;2023-08-12T02:28:43;11.00;;;3.83;;
10491;SDS011;5293;51.464;-2.566;2023-08-12T02:31:09;9.93;;;3.80;;
10491;SDS011;5293;51.464;-2.566;2023-08-12T02:33:34;23.40;;;4.43;;
10491;SDS011;5293;51.464;-2.566;2023-08-12T02:36:00;11.27;;;3.73;;
10491;SDS011;5293;51.464;-2.566;2023-08-12T02:38:26;16.67;;;4.10;;
10491;SDS011;5293;51.464;-2.566;2023-08-12T02:40:51;15.97;;;4.07;;
10491;SDS011;5293;51.464;-2.566;2023-08-12T02:43:17;13.73;;;3.97;;
10491;SDS011;5293;51.464;-2.566;2023-08-12T02:45:43;16.00;;;4.17;;
10491;SDS011;5293;51.464;-2.566;2023-08-12T02:48:11;18.10;;;4.20;;
10491;SDS011;5293;51.464;-2.566;2023-08-12T02:50:38;14.63;;;3.83;;
10491;SDS011;5293;51.464;-2.566;2023-08-12T02:53:04;10.73;;;3.83;;
10491;SDS011;5293;51.464;-2.566;2023-08-12T02:55:30;17.77;;;4.33;;
10491;SDS011;5293;51.464;-2.566;2023-08-12T02:57:57;10.13;;;3.87;;
10491;SDS011;5293;51.464;-2.566;2023-08-12T03:00:23;18.13;;;4.60;;
10491;SDS011;5293;51.464;-2.566;2023-08-12T03:02:49;10.27;;;3.10;;
10491;SDS011;5293;51.464;-2.566;2023-08-12T03:05:14;15.90;;;4.23;;
10491;SDS011;5293;51.464;-2.566;2023-08-12T03:07:40;16.70;;;3.80;;
10491;SDS011;5293;51.464;-2.566;2023-08-12T03:10:06;13.97;;;3.53;;
10491;SDS011;5293;51.464;-2.566;2023-08-12T03:12:32;15.80;;;3.83;;
10491;SDS011;5293;51.464;-2.566;2023-08-12T03:14:58;18.13;;;4.07;;
10491;SDS011;5293;51.464;-2.566;2023-08-12T03:17:24;14.10;;;4.13;;
10491;SDS011;5293;51.464;-2.566;2023-08-12T03:19:49;15.83;;;3.40;;
10491;SDS011;5293;51.464;-2.566;2023-08-12T03:22:16;15.73;;;3.60;;
10491;SDS011;5293;51.464;-2.566;2023-08-12T03:24:41;16.60;;;4.13;;
10491;SDS011;5293;51.464;-2.566;2023-08-12T03:27:07;14.23;;;3.67;;
10491;SDS011;5293;51.464;-2.566;2023-08-12T03:29:33;13.07;;;3.47;;
10491;SDS011;5293;51.464;-2.566;2023-08-12T03:31:58;15.10;;;3.60;;
10491;SDS011;5293;51.464;-2.566;2023-08-12T03:34:24;19.23;;;5.00;;
10491;SDS011;5293;51.464;-2.566;2023-08-12T03:36:49;19.17;;;4.57;;
10491;SDS011;5293;51.464;-2.566;2023-08-12T03:39:15;14.17;;;3.97;;
10491;SDS011;5293;51.464;-2.566;2023-08-12T03:41:41;20.03;;;3.73;;
10491;SDS011;5293;51.464;-2.566;2023-08-12T03:44:07;20.17;;;4.10;;
10491;SDS011;5293;51.464;-2.566;2023-08-12T03:46:33;18.53;;;4.60;;
10491;SDS011;5293;51.464;-2.566;2023-08-12T03:48:59;15.57;;;4.37;;
10491;SDS011;5293;51.464;-2.566;2023-08-12T03:51:25;17.50;;;3.80;;
10491;SDS011;5293;51.464;-2.566;2023-08-12T03:53:50;21.90;;;4.43;;
10491;SDS011;5293;51.464;-2.566;2023-08-12T03:56:16;10.57;;;3.80;;
10491;SDS011;5293;51.464;-2.566;2023-08-12T03:58:42;17.77;;;4.37;;
10491;SDS011;5293;51.464;-2.566;2023-08-12T04:01:08;13.20;;;4.00;;
10491;SDS011;5293;51.464;-2.566;2023-08-12T04:03:33;18.90;;;4.43;;
10491;SDS011;5293;51.464;-2.566;2023-08-12T04:05:59;15.27;;;4.13;;
10491;SDS011;5293;51.464;-2.566;2023-08-12T04:08:25;11.30;;;3.50;;
10491;SDS011;5293;51.464;-2.566;2023-08-12T04:10:51;12.60;;;3.97;;
10491;SDS011;5293;51.464;-2.566;2023-08-12T04:13:17;17.20;;;4.10;;
10491;SDS011;5293;51.464;-2.566;2023-08-12T04:15:42;15.57;;;3.60;;
10491;SDS011;5293;51.464;-2.566;2023-08-12T04:18:13;10.67;;;3.73;;
10491;SDS011;5293;51.464;-2.566;2023-08-12T04:20:39;15.90;;;4.00;;
10491;SDS011;5293;51.464;-2.566;2023-08-12T04:23:04;16.87;;;4.43;;
10491;SDS011;5293;51.464;-2.566;2023-08-12T04:25:30;15.17;;;4.37;;
10491;SDS011;5293;51.464;-2.566;2023-08-12T04:27:56;17.30;;;4.23;;
10491;SDS011;5293;51.464;-2.566;2023-08-12T04:30:21;17.63;;;4.33;;
10491;SDS011;5293;51.464;-2.566;2023-08-12T04:32:47;14.93;;;4.03;;
10491;SDS011;5293;51.464;-2.566;2023-08-12T04:35:13;14.80;;;3.50;;
10491;SDS011;5293;51.464;-2.566;2023-08-12T04:37:38;21.03;;;4.77;;
10491;SDS011;5293;51.464;-2.566;2023-08-12T04:40:04;16.93;;;4.60;;
10491;SDS011;5293;51.464;-2.566;2023-08-12T04:42:32;11.30;;;4.23;;
10491;SDS011;5293;51.464;-2.566;2023-08-12T04:44:58;13.13;;;3.70;;
10491;SDS011;5293;51.464;-2.566;2023-08-12T04:47:24;15.37;;;3.60;;
10491;SDS011;5293;51.464;-2.566;2023-08-12T04:49:49;15.40;;;4.00;;
10491;SDS011;5293;51.464;-2.566;2023-08-12T04:52:15;17.83;;;4.00;;
10491;SDS011;5293;51.464;-2.566;2023-08-12T04:54:40;20.00;;;3.73;;
10491;SDS011;5293;51.464;-2.566;2023-08-12T04:57:06;14.70;;;3.50;;
10491;SDS011;5293;51.464;-2.566;2023-08-12T04:59:32;14.53;;;3.33;;
10491;SDS011;5293;51.464;-2.566;2023-08-12T05:01:57;23.37;;;4.07;;
10491;SDS011;5293;51.464;-2.566;2023-08-12T05:04:23;18.20;;;3.23;;
10491;SDS011;5293;51.464;-2.566;2023-08-12T05:06:49;17.77;;;3.50;;
10491;SDS011;5293;51.464;-2.566;2023-08-12T05:09:14;14.63;;;3.90;;
10491;SDS011;5293;51.464;-2.566;2023-08-12T05:11:40;14.13;;;3.50;;
10491;SDS011;5293;51.464;-2.566;2023-08-12T05:14:06;16.77;;;3.23;;
10491;SDS011;5293;51.464;-2.566;2023-08-12T05:16:31;20.27;;;3.87;;
10491;SDS011;5293;51.464;-2.566;2023-08-12T05:18:57;9.83;;;3.57;;
10491;SDS011;5293;51.464;-2.566;2023-08-12T05:21:22;13.10;;;3.50;;
10491;SDS011;5293;51.464;-2.566;2023-08-12T05:23:48;17.93;;;3.50;;
10491;SDS011;5293;51.464;-2.566;2023-08-12T05:26:14;17.17;;;3.73;;
10491;SDS011;5293;51.464;-2.566;2023-08-12T05:28:39;16.07;;;4.27;;
10491;SDS011;5293;51.464;-2.566;2023-08-12T05:31:05;17.77;;;3.53;;
10491;SDS011;5293;51.464;-2.566;2023-08-12T05:33:31;12.77;;;3.67;;
10491;SDS011;5293;51.464;-2.566;2023-08-12T05:35:56;14.87;;;3.60;;
10491;SDS011;5293;51.464;-2.566;2023-08-12T05:38:22;16.87;;;3.73;;
10491;SDS011;5293;51.464;-2.566;2023-08-12T05:40:48;14.00;;;3.03;;
10491;SDS011;5293;51.464;-2.566;2023-08-12T05:43:13;16.17;;;3.60;;
10491;SDS011;5293;51.464;-2.566;2023-08-12T05:45:39;17.07;;;3.90;;
10491;SDS011;5293;51.464;-2.566;2023-08-12T05:48:05;13.40;;;3.70;;
10491;SDS011;5293;51.464;-2.566;2023-08-12T05:50:30;13.37;;;3.30;;
10491;SDS011;5293;51.464;-2.566;2023-08-12T05:52:56;21.70;;;4.43;;
10491;SDS011;5293;51.464;-2.566;2023-08-12T05:55:24;13.10;;;3.30;;
10491;SDS011;5293;51.464;-2.566;2023-08-12T05:57:50;13.87;;;3.30;;
10491;SDS011;5293;51.464;-2.566;2023-08-12T06:00:16;11.97;;;3.57;;
10491;SDS011;5293;51.464;-2.566;2023-08-12T06:02:41;14.10;;;3.27;;
10491;SDS011;5293;51.464;-2.566;2023-08-12T06:05:07;10.67;;;4.10;;
10491;SDS011;5293;51.464;-2.566;2023-08-12T06:07:33;18.80;;;3.83;;
10491;SDS011;5293;51.464;-2.566;2023-08-12T06:09:59;14.73;;;3.77;;
10491;SDS011;5293;51.464;-2.566;2023-08-12T06:12:26;10.13;;;3.27;;
10491;SDS011;5293;51.464;-2.566;2023-08-12T06:14:51;14.37;;;3.23;;
10491;SDS011;5293;51.464;-2.566;2023-08-12T06:17:17;18.07;;;3.20;;
10491;SDS011;5293;51.464;-2.566;2023-08-12T06:19:42;14.47;;;4.30;;
10491;SDS011;5293;51.464;-2.566;2023-08-12T06:22:08;16.60;;;3.80;;
10491;SDS011;5293;51.464;-2.566;2023-08-12T06:24:34;17.43;;;3.30;;
10491;SDS011;5293;51.464;-2.566;2023-08-12T06:26:59;16.87;;;3.83;;
10491;SDS011;5293;51.464;-2.566;2023-08-12T06:29:25;16.23;;;3.53;;
10491;SDS011;5293;51.464;-2.566;2023-08-12T06:31:51;16.73;;;3.47;;
10491;SDS011;5293;51.464;-2.566;2023-08-12T06:34:17;14.87;;;3.30;;
10491;SDS011;5293;51.464;-2.566;2023-08-12T06:36:43;15.50;;;3.23;;
10491;SDS011;5293;51.464;-2.566;2023-08-12T06:39:09;18.93;;;3.30;;
10491;SDS011;5293;51.464;-2.566;2023-08-12T06:41:34;15.57;;;3.83;;
10491;SDS011;5293;51.464;-2.566;2023-08-12T06:44:00;16.50;;;3.30;;
10491;SDS011;5293;51.464;-2.566;2023-08-12T06:46:26;20.00;;;3.93;;
10491;SDS011;5293;51.464;-2.566;2023-08-12T06:48:51;17.10;;;3.90;;
10491;SDS011;5293;51.464;-2.566;2023-08-12T06:51:17;19.43;;;4.07;;
10491;SDS011;5293;51.464;-2.566;2023-08-12T06:53:43;19.93;;;4.00;;
10491;SDS011;5293;51.464;-2.566;2023-08-12T06:56:08;14.33;;;3.43;;
10491;SDS011;5293;51.464;-2.566;2023-08-12T06:58:34;23.63;;;4.10;;
10491;SDS011;5293;51.464;-2.566;2023-08-12T07:01:00;21.07;;;4.37;;
10491;SDS011;5293;51.464;-2.566;2023-08-12T07:03:25;19.53;;;3.83;;
10491;SDS011;5293;51.464;-2.566;2023-08-12T07:05:52;16.83;;;3.33;;
10491;SDS011;5293;51.464;-2.566;2023-08-12T07:08:19;13.60;;;3.20;;
10491;SDS011;5293;51.464;-2.566;2023-08-12T07:10:44;17.87;;;4.50;;
10491;SDS011;5293;51.464;-2.566;2023-08-12T07:13:10;17.43;;;3.40;;
10491;SDS011;5293;51.464;-2.566;2023-08-12T07:15:36;8.53;;;2.80;;
10491;SDS011;5293;51.464;-2.566;2023-08-12T07:18:01;11.00;;;2.73;;
10491;SDS011;5293;51.464;-2.566;2023-08-12T07:20:27;9.87;;;2.37;;
10491;SDS011;5293;51.464;-2.566;2023-08-12T07:22:53;13.80;;;3.50;;
10491;SDS011;5293;51.464;-2.566;2023-08-12T07:25:19;9.23;;;2.70;;
10491;SDS011;5293;51.464;-2.566;2023-08-12T07:27:44;11.90;;;3.07;;
10491;SDS011;5293;51.464;-2.566;2023-08-12T07:30:10;13.23;;;3.17;;
10491;SDS011;5293;51.464;-2.566;2023-08-12T07:32:37;12.90;;;3.13;;
10491;SDS011;5293;51.464;-2.566;2023-08-12T07:35:04;18.23;;;3.30;;
10491;SDS011;5293;51.464;-2.566;2023-08-12T07:37:33;10.87;;;3.20;;
10491;SDS011;5293;51.464;-2.566;2023-08-12T07:39:59;18.60;;;4.03;;
10491;SDS011;5293;51.464;-2.566;2023-08-12T07:42:24;16.40;;;3.33;;
10491;SDS011;5293;51.464;-2.566;2023-08-12T07:44:50;13.60;;;3.20;;
10491;SDS011;5293;51.464;-2.566;2023-08-12T07:47:16;16.20;;;3.13;;
10491;SDS011;5293;51.464;-2.566;2023-08-12T07:49:42;19.63;;;3.70;;
10491;SDS011;5293;51.464;-2.566;2023-08-12T07:52:08;18.53;;;4.13;;
10491;SDS011;5293;51.464;-2.566;2023-08-12T07:54:34;21.53;;;3.40;;
10491;SDS011;5293;51.464;-2.566;2023-08-12T07:56:59;9.90;;;2.93;;
10491;SDS011;5293;51.464;-2.566;2023-08-12T07:59:25;11.87;;;3.03;;
10491;SDS011;5293;51.464;-2.566;2023-08-12T08:01:51;16.60;;;3.47;;
10491;SDS011;5293;51.464;-2.566;2023-08-12T08:04:17;9.80;;;2.83;;
10491;SDS011;5293;51.464;-2.566;2023-08-12T08:06:43;11.03;;;3.00;;
10491;SDS011;5293;51.464;-2.566;2023-08-12T08:09:09;13.37;;;2.93;;
10491;SDS011;5293;51.464;-2.566;2023-08-12T08:11:35;11.57;;;2.90;;
10491;SDS011;5293;51.464;-2.566;2023-08-12T08:14:01;10.13;;;3.00;;
10491;SDS011;5293;51.464;-2.566;2023-08-12T08:16:27;14.37;;;2.70;;
10491;SDS011;5293;51.464;-2.566;2023-08-12T08:18:53;11.30;;;2.73;;
10491;SDS011;5293;51.464;-2.566;2023-08-12T08:21:19;8.07;;;2.57;;
10491;SDS011;5293;51.464;-2.566;2023-08-12T08:23:45;13.47;;;3.07;;
10491;SDS011;5293;51.464;-2.566;2023-08-12T08:26:11;9.47;;;2.77;;
10491;SDS011;5293;51.464;-2.566;2023-08-12T08:28:38;12.47;;;4.43;;
10491;SDS011;5293;51.464;-2.566;2023-08-12T08:31:03;23.80;;;5.43;;
10491;SDS011;5293;51.464;-2.566;2023-08-12T08:33:29;14.47;;;4.20;;
10491;SDS011;5293;51.464;-2.566;2023-08-12T08:35:55;7.50;;;2.60;;
10491;SDS011;5293;51.464;-2.566;2023-08-12T08:38:20;9.67;;;2.20;;
10491;SDS011;5293;51.464;-2.566;2023-08-12T08:40:48;14.33;;;2.43;;
10491;SDS011;5293;51.464;-2.566;2023-08-12T08:43:15;10.03;;;2.57;;
10491;SDS011;5293;51.464;-2.566;2023-08-12T08:45:44;11.80;;;2.80;;
10491;SDS011;5293;51.464;-2.566;2023-08-12T08:48:10;10.80;;;2.63;;
10491;SDS011;5293;51.464;-2.566;2023-08-12T08:50:37;14.47;;;2.77;;
10491;SDS011;5293;51.464;-2.566;2023-08-12T08:53:04;11.57;;;2.10;;
10491;SDS011;5293;51.464;-2.566;2023-08-12T08:55:32;9.67;;;2.67;;
10491;SDS011;5293;51.464;-2.566;2023-08-12T08:57:57;11.10;;;2.33;;
10491;SDS011;5293;51.464;-2.566;2023-08-12T09:00:24;9.80;;;2.77;;
10491;SDS011;5293;51.464;-2.566;2023-08-12T09:02:50;7.37;;;1.90;;
10491;SDS011;5293;51.464;-2.566;2023-08-12T09:05:16;9.03;;;1.97;;
10491;SDS011;5293;51.464;-2.566;2023-08-12T09:07:43;9.27;;;2.73;;
10491;SDS011;5293;51.464;-2.566;2023-08-12T09:10:10;9.27;;;2.77;;
10491;SDS011;5293;51.464;-2.566;2023-08-12T09:12:36;6.10;;;2.50;;
10491;SDS011;5293;51.464;-2.566;2023-08-12T09:15:03;7.13;;;2.20;;
10491;SDS011;5293;51.464;-2.566;2023-08-12T09:17:29;7.07;;;2.50;;
10491;SDS011;5293;51.464;-2.566;2023-08-12T09:19:58;12.80;;;2.53;;
10491;SDS011;5293;51.464;-2.566;2023-08-12T09:22:24;6.63;;;1.90;;
10491;SDS011;5293;51.464;-2.566;2023-08-12T09:24:57;5.77;;;1.83;;
10491;SDS011;5293;51.464;-2.566;2023-08-12T09:27:23;7.77;;;2.30;;
10491;SDS011;5293;51.464;-2.566;2023-08-12T09:29:49;7.83;;;1.90;;
10491;SDS011;5293;51.464;-2.566;2023-08-12T09:32:19;11.03;;;2.27;;
10491;SDS011;5293;51.464;-2.566;2023-08-12T09:34:52;10.43;;;2.50;;
10491;SDS011;5293;51.464;-2.566;2023-08-12T09:37:20;8.63;;;2.23;;
10491;SDS011;5293;51.464;-2.566;2023-08-12T09:39:47;5.80;;;1.93;;
10491;SDS011;5293;51.464;-2.566;2023-08-12T09:42:13;8.40;;;2.07;;
10491;SDS011;5293;51.464;-2.566;2023-08-12T09:44:40;10.33;;;2.77;;
10491;SDS011;5293;51.464;-2.566;2023-08-12T09:47:06;13.17;;;2.47;;
10491;SDS011;5293;51.464;-2.566;2023-08-12T09:49:35;9.60;;;2.33;;
10491;SDS011;5293;51.464;-2.566;2023-08-12T09:52:06;8.60;;;2.27;;
10491;SDS011;5293;51.464;-2.566;2023-08-12T09:54:32;7.47;;;1.90;;
10491;SDS011;5293;51.464;-2.566;2023-08-12T09:57:00;6.53;;;1.50;;
10491;SDS011;5293;51.464;-2.566;2023-08-12T09:59:33;5.67;;;1.80;;
10491;SDS011;5293;51.464;-2.566;2023-08-12T10:02:01;7.50;;;1.90;;
10491;SDS011;5293;51.464;-2.566;2023-08-12T10:04:32;5.77;;;1.40;;
10491;SDS011;5293;51.464;-2.566;2023-08-12T10:07:07;9.30;;;2.00;;
10491;SDS011;5293;51.464;-2.566;2023-08-12T10:09:35;8.13;;;2.07;;
10491;SDS011;5293;51.464;-2.566;2023-08-12T10:12:02;4.97;;;1.63;;
10491;SDS011;5293;51.464;-2.566;2023-08-12T10:14:29;6.10;;;1.50;;
10491;SDS011;5293;51.464;-2.566;2023-08-12T10:16:56;5.87;;;1.70;;
10491;SDS011;5293;51.464;-2.566;2023-08-12T10:19:23;4.67;;;1.60;;
10491;SDS011;5293;51.464;-2.566;2023-08-12T10:21:50;6.37;;;1.77;;
10491;SDS011;5293;51.464;-2.566;2023-08-12T10:24:22;5.57;;;1.53;;
10491;SDS011;5293;51.464;-2.566;2023-08-12T10:26:51;8.50;;;2.03;;
10491;SDS011;5293;51.464;-2.566;2023-08-12T10:29:17;6.83;;;1.97;;
10491;SDS011;5293;51.464;-2.566;2023-08-12T10:31:43;6.10;;;1.70;;
10491;SDS011;5293;51.464;-2.566;2023-08-12T10:34:20;5.27;;;2.13;;
10491;SDS011;5293;51.464;-2.566;2023-08-12T10:36:48;10.03;;;2.00;;
10491;SDS011;5293;51.464;-2.566;2023-08-12T10:39:21;7.13;;;2.10;;
10491;SDS011;5293;51.464;-2.566;2023-08-12T10:41:51;5.37;;;1.40;;
10491;SDS011;5293;51.464;-2.566;2023-08-12T10:44:19;7.07;;;2.20;;
10491;SDS011;5293;51.464;-2.566;2023-08-12T10:46:50;6.03;;;1.57;;
10491;SDS011;5293;51.464;-2.566;2023-08-12T10:49:18;5.90;;;1.50;;
10491;SDS011;5293;51.464;-2.566;2023-08-12T10:59:49;4.43;;;1.80;;
10491;SDS011;5293;51.464;-2.566;2023-08-12T11:02:16;8.63;;;1.97;;
10491;SDS011;5293;51.464;-2.566;2023-08-12T11:05:35;8.67;;;2.17;;
10491;SDS011;5293;51.464;-2.566;2023-08-12T11:07:40;5.07;;;2.07;;
10491;SDS011;5293;51.464;-2.566;2023-08-12T11:10:17;5.33;;;1.63;;
10491;SDS011;5293;51.464;-2.566;2023-08-12T11:15:18;10.30;;;2.27;;
10491;SDS011;5293;51.464;-2.566;2023-08-12T11:17:53;7.40;;;1.90;;
10491;SDS011;5293;51.464;-2.566;2023-08-12T11:20:20;12.43;;;2.60;;
10491;SDS011;5293;51.464;-2.566;2023-08-12T11:22:46;13.90;;;2.60;;
10491;SDS011;5293;51.464;-2.566;2023-08-12T11:25:13;8.40;;;2.10;;
10491;SDS011;5293;51.464;-2.566;2023-08-12T11:27:40;9.27;;;2.13;;
10491;SDS011;5293;51.464;-2.566;2023-08-12T11:30:11;6.83;;;1.80;;
10491;SDS011;5293;51.464;-2.566;2023-08-12T11:32:41;4.40;;;1.80;;
10491;SDS011;5293;51.464;-2.566;2023-08-12T11:35:08;5.83;;;2.17;;
10491;SDS011;5293;51.464;-2.566;2023-08-12T11:37:36;7.27;;;2.37;;
10491;SDS011;5293;51.464;-2.566;2023-08-12T11:40:06;6.00;;;1.57;;
10491;SDS011;5293;51.464;-2.566;2023-08-12T11:42:36;6.57;;;1.90;;
10491;SDS011;5293;51.464;-2.566;2023-08-12T11:45:04;4.73;;;1.40;;
10491;SDS011;5293;51.464;-2.566;2023-08-12T11:47:31;3.17;;;1.20;;
10491;SDS011;5293;51.464;-2.566;2023-08-12T11:49:57;2.60;;;1.40;;
10491;SDS011;5293;51.464;-2.566;2023-08-12T11:52:23;3.70;;;1.10;;
10491;SDS011;5293;51.464;-2.566;2023-08-12T11:54:49;5.67;;;1.60;;
10491;SDS011;5293;51.464;-2.566;2023-08-12T11:57:15;5.40;;;1.50;;
10491;SDS011;5293;51.464;-2.566;2023-08-12T11:59:42;5.30;;;1.60;;
10491;SDS011;5293;51.464;-2.566;2023-08-12T12:02:08;4.33;;;1.87;;
10491;SDS011;5293;51.464;-2.566;2023-08-12T12:04:35;7.83;;;1.50;;
10491;SDS011;5293;51.464;-2.566;2023-08-12T12:07:02;7.27;;;1.67;;
10491;SDS011;5293;51.464;-2.566;2023-08-12T12:09:31;3.47;;;1.43;;
10491;SDS011;5293;51.464;-2.566;2023-08-12T12:11:57;3.43;;;1.33;;
10491;SDS011;5293;51.464;-2.566;2023-08-12T12:14:25;11.43;;;2.37;;
10491;SDS011;5293;51.464;-2.566;2023-08-12T12:16:51;3.53;;;1.50;;
10491;SDS011;5293;51.464;-2.566;2023-08-12T12:19:17;4.43;;;1.67;;
10491;SDS011;5293;51.464;-2.566;2023-08-12T12:21:48;4.97;;;1.77;;
10491;SDS011;5293;51.464;-2.566;2023-08-12T12:24:15;5.37;;;1.57;;
10491;SDS011;5293;51.464;-2.566;2023-08-12T12:26:42;3.33;;;1.60;;
10491;SDS011;5293;51.464;-2.566;2023-08-12T12:29:09;4.67;;;1.50;;
10491;SDS011;5293;51.464;-2.566;2023-08-12T12:31:37;6.60;;;1.50;;
10491;SDS011;5293;51.464;-2.566;2023-08-12T12:34:03;3.80;;;1.30;;
10491;SDS011;5293;51.464;-2.566;2023-08-12T12:36:30;4.93;;;1.33;;
10491;SDS011;5293;51.464;-2.566;2023-08-12T12:39:05;2.87;;;1.13;;
10491;SDS011;5293;51.464;-2.566;2023-08-12T12:41:31;6.13;;;1.77;;
10491;SDS011;5293;51.464;-2.566;2023-08-12T12:43:59;7.57;;;1.37;;
10491;SDS011;5293;51.464;-2.566;2023-08-12T12:46:26;2.87;;;1.30;;
10491;SDS011;5293;51.464;-2.566;2023-08-12T12:48:52;6.17;;;1.80;;
10491;SDS011;5293;51.464;-2.566;2023-08-12T12:51:18;4.03;;;1.70;;
10491;SDS011;5293;51.464;-2.566;2023-08-12T12:53:43;4.83;;;1.47;;
10491;SDS011;5293;51.464;-2.566;2023-08-12T12:56:09;4.57;;;1.60;;
10491;SDS011;5293;51.464;-2.566;2023-08-12T12:58:35;4.90;;;1.90;;
10491;SDS011;5293;51.464;-2.566;2023-08-12T13:01:03;5.63;;;2.17;;
10491;SDS011;5293;51.464;-2.566;2023-08-12T13:03:30;7.03;;;2.00;;
10491;SDS011;5293;51.464;-2.566;2023-08-12T13:05:56;4.97;;;1.70;;
10491;SDS011;5293;51.464;-2.566;2023-08-12T13:08:22;4.53;;;2.07;;
10491;SDS011;5293;51.464;-2.566;2023-08-12T13:10:49;5.97;;;2.40;;
10491;SDS011;5293;51.464;-2.566;2023-08-12T13:13:15;5.50;;;1.90;;
10491;SDS011;5293;51.464;-2.566;2023-08-12T13:15:42;7.20;;;2.40;;
10491;SDS011;5293;51.464;-2.566;2023-08-12T13:18:08;4.63;;;2.07;;
10491;SDS011;5293;51.464;-2.566;2023-08-12T13:20:34;9.63;;;2.23;;
10491;SDS011;5293;51.464;-2.566;2023-08-12T13:23:00;6.50;;;2.30;;
10491;SDS011;5293;51.464;-2.566;2023-08-12T13:25:28;8.60;;;2.40;;
10491;SDS011;5293;51.464;-2.566;2023-08-12T13:27:56;8.03;;;2.90;;
10491;SDS011;5293;51.464;-2.566;2023-08-12T13:30:22;11.97;;;3.47;;
10491;SDS011;5293;51.464;-2.566;2023-08-12T13:32:48;7.93;;;2.60;;
10491;SDS011;5293;51.464;-2.566;2023-08-12T13:35:14;6.53;;;2.50;;
10491;SDS011;5293;51.464;-2.566;2023-08-12T13:37:39;6.83;;;2.00;;
10491;SDS011;5293;51.464;-2.566;2023-08-12T13:40:05;10.40;;;3.13;;
10491;SDS011;5293;51.464;-2.566;2023-08-12T13:42:31;8.50;;;1.87;;
10491;SDS011;5293;51.464;-2.566;2023-08-12T13:44:57;6.00;;;1.40;;
10491;SDS011;5293;51.464;-2.566;2023-08-12T13:47:23;5.43;;;2.10;;
10491;SDS011;5293;51.464;-2.566;2023-08-12T13:49:50;6.53;;;1.87;;
10491;SDS011;5293;51.464;-2.566;2023-08-12T13:52:16;5.43;;;1.17;;
10491;SDS011;5293;51.464;-2.566;2023-08-12T13:54:42;4.57;;;1.60;;
10491;SDS011;5293;51.464;-2.566;2023-08-12T13:57:07;5.67;;;1.60;;
10491;SDS011;5293;51.464;-2.566;2023-08-12T13:59:33;3.20;;;1.40;;
10491;SDS011;5293;51.464;-2.566;2023-08-12T14:01:59;4.27;;;1.10;;
10491;SDS011;5293;51.464;-2.566;2023-08-12T14:04:24;6.83;;;1.87;;
10491;SDS011;5293;51.464;-2.566;2023-08-12T14:06:50;3.47;;;1.67;;
10491;SDS011;5293;51.464;-2.566;2023-08-12T14:09:16;2.47;;;1.03;;
10491;SDS011;5293;51.464;-2.566;2023-08-12T14:11:43;8.70;;;1.33;;
10491;SDS011;5293;51.464;-2.566;2023-08-12T14:14:09;6.00;;;1.50;;
10491;SDS011;5293;51.464;-2.566;2023-08-12T14:16:35;3.73;;;1.77;;
10491;SDS011;5293;51.464;-2.566;2023-08-12T14:19:01;6.03;;;2.10;;
10491;SDS011;5293;51.464;-2.566;2023-08-12T14:21:26;3.27;;;1.43;;
10491;SDS011;5293;51.464;-2.566;2023-08-12T14:23:52;2.97;;;1.53;;
10491;SDS011;5293;51.464;-2.566;2023-08-12T14:26:17;2.47;;;1.43;;
10491;SDS011;5293;51.464;-2.566;2023-08-12T14:28:43;5.30;;;1.17;;
10491;SDS011;5293;51.464;-2.566;2023-08-12T14:31:09;5.60;;;1.60;;
10491;SDS011;5293;51.464;-2.566;2023-08-12T14:33:34;5.93;;;1.50;;
10491;SDS011;5293;51.464;-2.566;2023-08-12T14:36:02;6.70;;;1.77;;
10491;SDS011;5293;51.464;-2.566;2023-08-12T14:38:28;4.77;;;1.30;;
10491;SDS011;5293;51.464;-2.566;2023-08-12T14:40:54;3.67;;;1.60;;
10491;SDS011;5293;51.464;-2.566;2023-08-12T14:43:20;4.97;;;1.70;;
10491;SDS011;5293;51.464;-2.566;2023-08-12T14:45:46;5.13;;;1.47;;
10491;SDS011;5293;51.464;-2.566;2023-08-12T14:48:12;4.57;;;1.33;;
10491;SDS011;5293;51.464;-2.566;2023-08-12T14:50:40;4.00;;;1.40;;